Estaca de Bares, Galicia

latitud = 43° 47' 14''N | longitud = 007° 41' 00''W
59 metros sobre el nivel del mar | datos mensuales

Fecha, hora, temperatura, viento dirección y velocidad, humedad y presión.

  • 22-11-2017 09:00:00 | 18.10°C | Sudoeste |54.00 km/h | 28.00% | 993.70 hPa
  • 22-11-2017 08:00:00 | 18.10°C | Sudoeste |44.00 km/h | 28.00% | 994.40 hPa
  • 22-11-2017 07:00:00 | 18.00°C | Sudoeste |41.00 km/h | 29.00% | 995.60 hPa
  • 22-11-2017 06:00:00 | 17.00°C | Sur |28.00 km/h | 32.00% | 997.10 hPa
  • 22-11-2017 05:00:00 | 15.90°C | Este |11.00 km/h | 40.00% | 998.00 hPa
  • 22-11-2017 04:00:00 | 16.60°C | Sur |15.00 km/h | 33.00% | 998.60 hPa
  • 22-11-2017 03:00:00 | 16.20°C | Sur |22.00 km/h | 33.00% | 999.10 hPa
  • 22-11-2017 02:00:00 | 15.30°C | Sur |22.00 km/h | 35.00% | 1000.20 hPa
  • 22-11-2017 01:00:00 | 13.90°C | Sudoeste |18.00 km/h | 46.00% | 1001.60 hPa
  • 22-11-2017 00:00:00 | 13.80°C | Oeste |22.00 km/h | 52.00% | 1002.20 hPa
  • 21-11-2017 23:00:00 | 13.90°C | Oeste |19.00 km/h | 54.00% | 1002.70 hPa
  • 21-11-2017 22:00:00 | 15.60°C | Oeste |9.00 km/h | 39.00% | 1003.00 hPa
  • 21-11-2017 21:00:00 | 17.30°C | Sur |24.00 km/h | 30.00% | 1003.30 hPa
  • 21-11-2017 20:00:00 | 17.30°C | Sur |2.00 km/h | 31.00% | 1004.10 hPa
  • 21-11-2017 19:00:00 | 18.30°C | Sudoeste |14.00 km/h | 28.00% | 1004.30 hPa
  • 21-11-2017 18:00:00 | 18.60°C | Sudoeste |17.00 km/h | 30.00% | 1004.40 hPa
  • 21-11-2017 17:00:00 | 18.50°C | Sudoeste |5.00 km/h | 39.00% | 1004.80 hPa
  • 21-11-2017 16:00:00 | 20.00°C | Oeste |15.00 km/h | 38.00% | 1004.90 hPa
  • 21-11-2017 15:00:00 | 19.00°C | Sudoeste |17.00 km/h | 41.00% | 1005.20 hPa
  • 21-11-2017 14:00:00 | 20.30°C | Sudoeste |17.00 km/h | 31.00% | 1006.00 hPa
  • 21-11-2017 13:00:00 | 17.80°C | Oeste |7.00 km/h | 42.00% | 1006.80 hPa
  • 21-11-2017 12:00:00 | 16.80°C | Oeste |17.00 km/h | 54.00% | 1007.80 hPa
  • 21-11-2017 11:00:00 | 14.90°C | Sudoeste |14.00 km/h | 43.00% | 1007.80 hPa
  • 21-11-2017 10:00:00 | 14.60°C | Sudoeste |5.00 km/h | 52.00% | 1008.30 hPa